createdAt,value
2022-09-23T00:00:28.694Z,2.10
2022-09-23T00:06:30.646Z,2.47
2022-09-23T00:12:32.860Z,2.20
2022-09-23T00:18:35.132Z,2.13
2022-09-23T00:24:37.029Z,2.03
2022-09-23T00:30:41.099Z,1.80
2022-09-23T00:36:43.507Z,2.22
2022-09-23T00:42:52.205Z,2.00
2022-09-23T00:49:34.647Z,2.22
2022-09-23T00:55:45.987Z,2.00
2022-09-23T01:01:49.918Z,2.40
2022-09-23T01:07:52.312Z,2.08
2022-09-23T01:14:32.152Z,2.00
2022-09-23T01:21:11.279Z,2.25
2022-09-23T01:27:47.246Z,2.35
2022-09-23T01:33:58.310Z,2.80
2022-09-23T01:40:31.616Z,2.83
2022-09-23T01:46:46.093Z,2.80
2022-09-23T01:52:49.305Z,2.72
2022-09-23T01:58:55.629Z,2.95
2022-09-23T02:05:10.554Z,3.10
2022-09-23T02:11:15.476Z,3.20
2022-09-23T02:17:47.406Z,2.78
2022-09-23T02:23:54.995Z,2.85
2022-09-23T02:30:27.174Z,3.15
2022-09-23T02:36:56.148Z,3.40
2022-09-23T02:43:17.139Z,3.47
2022-09-23T02:49:25.463Z,2.90
2022-09-23T02:55:33.282Z,3.47
2022-09-23T03:07:52.662Z,3.83
2022-09-23T03:14:17.799Z,3.33
2022-09-23T03:20:24.524Z,3.45
2022-09-23T03:26:34.801Z,3.63
2022-09-23T03:32:38.340Z,4.05
2022-09-23T03:38:45.229Z,4.18
2022-09-23T03:44:48.314Z,3.90
2022-09-23T03:50:50.226Z,3.90
2022-09-23T03:56:52.261Z,4.28
2022-09-23T04:02:54.068Z,4.10
2022-09-23T04:08:55.957Z,3.80
2022-09-23T04:14:57.748Z,3.72
2022-09-23T04:21:00.345Z,4.55
2022-09-23T04:27:02.293Z,4.80
2022-09-23T04:33:04.476Z,4.97
2022-09-23T04:39:06.805Z,6.25
2022-09-23T04:45:09.088Z,6.30
2022-09-23T04:51:12.093Z,6.13
2022-09-23T04:57:14.434Z,6.93
2022-09-23T05:03:16.600Z,6.85
2022-09-23T05:09:18.736Z,7.57
2022-09-23T05:15:21.277Z,7.65
2022-09-23T05:21:25.025Z,8.57
2022-09-23T05:27:26.905Z,8.35
2022-09-23T05:33:30.034Z,7.75
2022-09-23T05:39:31.865Z,7.65
2022-09-23T05:45:33.749Z,7.95
2022-09-23T05:51:35.992Z,9.65
2022-09-23T05:57:37.850Z,8.35
2022-09-23T06:03:40.046Z,9.27
2022-09-23T06:09:42.390Z,8.88
2022-09-23T06:15:44.629Z,7.45
2022-09-23T06:21:48.886Z,7.13
2022-09-23T06:27:54.972Z,6.65
2022-09-23T06:34:07.994Z,5.60
2022-09-23T06:40:15.089Z,5.22
2022-09-23T06:46:17.453Z,2.90
2022-09-23T06:52:21.133Z,2.58
2022-09-23T06:58:23.078Z,2.22
2022-09-23T07:04:29.262Z,2.30
2022-09-23T07:10:31.319Z,2.30
2022-09-23T07:16:33.620Z,2.22
2022-09-23T07:22:35.963Z,2.17
2022-09-23T07:28:39.055Z,2.50
2022-09-23T07:34:40.955Z,1.88
2022-09-23T07:40:42.925Z,2.22
2022-09-23T07:46:45.026Z,1.85
2022-09-23T07:52:46.966Z,2.30
2022-09-23T07:59:00.095Z,2.10
2022-09-23T08:05:03.510Z,1.67
2022-09-23T08:11:08.119Z,1.80
2022-09-23T08:17:11.339Z,2.00
2022-09-23T08:23:14.996Z,1.92
2022-09-23T08:29:19.099Z,2.10
2022-09-23T08:35:20.935Z,3.63
2022-09-23T08:41:48.242Z,2.72
2022-09-23T08:47:56.482Z,2.03
2022-09-23T08:53:59.727Z,2.10
2022-09-23T09:00:02.898Z,2.05
2022-09-23T09:06:04.927Z,2.40
2022-09-23T09:12:24.288Z,2.15
2022-09-23T09:18:31.132Z,3.08
2022-09-23T09:24:35.136Z,2.30
2022-09-23T09:30:37.455Z,2.42
2022-09-23T09:36:57.983Z,2.63
2022-09-23T09:43:00.269Z,2.10
2022-09-23T09:49:40.724Z,1.90
2022-09-23T09:55:43.205Z,2.38
2022-09-23T10:01:46.246Z,2.00
2022-09-23T10:07:48.595Z,2.05
2022-09-23T10:14:05.422Z,2.20
2022-09-23T10:20:09.209Z,2.03
2022-09-23T10:26:12.437Z,1.75
2022-09-23T10:32:30.869Z,2.00
2022-09-23T10:38:32.845Z,1.85
2022-09-23T10:45:24.742Z,1.92
2022-09-23T10:51:44.577Z,1.98
2022-09-23T10:57:46.449Z,1.75
2022-09-23T11:04:18.751Z,1.60
2022-09-23T11:10:50.295Z,1.42
2022-09-23T11:17:04.086Z,1.63
2022-09-23T11:23:12.068Z,1.70
2022-09-23T11:35:24.382Z,1.58
2022-09-23T11:41:36.493Z,1.30
2022-09-23T11:47:45.732Z,1.70
2022-09-23T11:53:57.362Z,1.50
2022-09-23T12:00:06.461Z,1.55
2022-09-23T12:06:15.152Z,1.08
2022-09-23T12:12:48.837Z,1.30
2022-09-23T12:19:04.586Z,1.40
2022-09-23T12:25:25.627Z,1.50
2022-09-23T12:31:32.390Z,1.40
2022-09-23T12:37:38.730Z,1.40
2022-09-23T12:43:51.396Z,1.52
2022-09-23T12:49:54.019Z,1.58
2022-09-23T12:55:58.241Z,1.48
2022-09-23T13:02:21.981Z,1.50
2022-09-23T13:08:25.384Z,1.40
2022-09-23T13:14:30.068Z,1.70
2022-09-23T13:20:38.277Z,1.80
2022-09-23T13:26:49.475Z,1.65
2022-09-23T13:33:02.844Z,1.80
2022-09-23T13:39:25.873Z,1.70
2022-09-23T13:45:30.995Z,1.83
2022-09-23T13:51:36.787Z,1.80
2022-09-23T13:57:38.710Z,1.30
2022-09-23T14:03:40.619Z,1.50
2022-09-23T14:09:46.324Z,1.80
2022-09-23T14:15:48.853Z,1.30
2022-09-23T14:21:53.404Z,1.30
2022-09-23T14:27:58.566Z,1.33
2022-09-23T14:34:02.310Z,1.20
2022-09-23T14:40:16.984Z,1.30
2022-09-23T14:46:20.942Z,1.45
2022-09-23T14:52:22.860Z,1.40
2022-09-23T14:58:28.670Z,1.30
2022-09-23T15:04:32.440Z,1.40
2022-09-23T15:10:38.126Z,1.40
2022-09-23T15:16:40.396Z,1.35
2022-09-23T15:22:48.651Z,1.38
2022-09-23T15:28:54.545Z,1.40
2022-09-23T15:34:56.868Z,1.40
2022-09-23T15:40:58.778Z,1.30
2022-09-23T15:47:01.146Z,1.30
2022-09-23T15:53:04.248Z,1.30
2022-09-23T15:59:06.347Z,1.50
2022-09-23T16:05:24.726Z,1.55
2022-09-23T16:11:34.613Z,1.55
2022-09-23T16:17:37.814Z,1.40
2022-09-23T16:23:43.704Z,1.42
2022-09-23T16:29:45.599Z,1.60
2022-09-23T16:35:48.229Z,1.45
2022-09-23T16:41:50.084Z,1.30
2022-09-23T16:47:52.361Z,1.40
2022-09-23T16:53:56.548Z,1.58
2022-09-23T17:00:16.961Z,1.48
2022-09-23T17:06:19.425Z,1.50
2022-09-23T17:12:28.640Z,1.60
2022-09-23T17:18:30.505Z,1.60
2022-09-23T17:24:32.342Z,1.50
2022-09-23T17:30:34.471Z,1.50
2022-09-23T17:36:36.769Z,1.73
2022-09-23T17:42:41.975Z,1.77
2022-09-23T17:48:44.419Z,1.73
2022-09-23T17:54:46.355Z,1.92
2022-09-23T18:00:48.301Z,1.63
2022-09-23T18:06:51.048Z,1.90
2022-09-23T18:12:53.091Z,1.70
2022-09-23T18:18:57.312Z,1.70
2022-09-23T18:24:59.270Z,1.77
2022-09-23T18:31:01.571Z,1.70
2022-09-23T18:37:08.621Z,2.10
2022-09-23T18:43:19.712Z,1.75
2022-09-23T18:49:40.369Z,2.20
2022-09-23T18:55:42.316Z,2.90
2022-09-23T19:01:45.970Z,2.65
2022-09-23T19:07:47.921Z,1.95
2022-09-23T19:13:54.898Z,2.00
2022-09-23T19:19:57.406Z,2.10
2022-09-23T19:26:09.214Z,2.17
2022-09-23T19:32:11.265Z,2.22
2022-09-23T19:38:13.141Z,2.47
2022-09-23T19:44:16.600Z,2.25
2022-09-23T19:50:19.119Z,3.20
2022-09-23T19:56:21.027Z,2.80
2022-09-23T20:02:23.090Z,3.50
2022-09-23T20:08:26.947Z,3.78
2022-09-23T20:14:28.815Z,3.90
2022-09-23T20:20:30.647Z,3.88
2022-09-23T20:26:51.210Z,4.38
2022-09-23T20:32:53.457Z,3.80
2022-09-23T20:39:00.681Z,4.03
2022-09-23T20:45:02.586Z,4.00
2022-09-23T20:51:05.589Z,3.80
2022-09-23T20:57:10.964Z,3.63
2022-09-23T21:03:13.174Z,3.70
2022-09-23T21:09:15.253Z,4.40
2022-09-23T21:15:18.340Z,4.28
2022-09-23T21:21:22.289Z,4.28
2022-09-23T21:27:24.302Z,4.78
2022-09-23T21:33:26.421Z,5.18
2022-09-23T21:39:28.288Z,4.88
2022-09-23T21:45:31.718Z,4.03
2022-09-23T21:51:40.817Z,4.30
2022-09-23T21:57:44.097Z,4.07
2022-09-23T22:03:52.040Z,3.90
2022-09-23T22:15:55.838Z,4.32
2022-09-23T22:21:59.796Z,4.10
2022-09-23T22:28:27.273Z,4.40
2022-09-23T22:34:51.151Z,4.20
2022-09-23T22:40:57.199Z,4.07
2022-09-23T22:47:02.549Z,5.10
2022-09-23T22:53:17.849Z,5.50
2022-09-23T22:59:25.783Z,5.43
2022-09-23T23:05:27.723Z,5.38
2022-09-23T23:11:31.418Z,5.90
2022-09-23T23:17:41.521Z,5.45
2022-09-23T23:23:46.217Z,5.95
2022-09-23T23:29:48.108Z,5.70
2022-09-23T23:35:52.948Z,6.22
2022-09-23T23:41:56.215Z,5.68
2022-09-23T23:47:58.139Z,5.80
2022-09-23T23:54:00.063Z,5.75
